sensor_id;sensor_type;location;lat;lon;timestamp;pressure;altitude;pressure_sealevel;temperature;humidity
59240;BME280;45010;53.640;10.578;2022-12-29T00:00:09;99449.59;;;22.24;35.29
59240;BME280;45010;53.640;10.578;2022-12-29T00:03:10;99453.34;;;22.28;35.56
59240;BME280;45010;53.640;10.578;2022-12-29T00:06:10;99452.31;;;22.29;35.46
59240;BME280;45010;53.640;10.578;2022-12-29T00:09:12;99432.06;;;22.23;35.45
59240;BME280;45010;53.640;10.578;2022-12-29T00:12:13;99433.16;;;22.27;35.49
59240;BME280;45010;53.640;10.578;2022-12-29T00:15:13;99427.31;;;22.25;35.42
59240;BME280;45010;53.640;10.578;2022-12-29T00:18:32;99428.34;;;22.24;35.59
59240;BME280;45010;53.640;10.578;2022-12-29T00:21:32;99443.50;;;22.23;35.47
59240;BME280;45010;53.640;10.578;2022-12-29T00:24:51;99442.66;;;22.23;35.33
59240;BME280;45010;53.640;10.578;2022-12-29T00:28:10;99411.03;;;21.99;35.48
59240;BME280;45010;53.640;10.578;2022-12-29T00:31:29;99434.16;;;22.21;35.37
59240;BME280;45010;53.640;10.578;2022-12-29T00:34:48;99439.72;;;22.19;35.74
59240;BME280;45010;53.640;10.578;2022-12-29T00:38:07;99429.91;;;22.20;35.30
59240;BME280;45010;53.640;10.578;2022-12-29T00:41:27;99426.66;;;22.17;35.82
59240;BME280;45010;53.640;10.578;2022-12-29T00:44:46;99428.31;;;22.19;35.81
59240;BME280;45010;53.640;10.578;2022-12-29T00:47:46;99416.88;;;22.18;35.79
59240;BME280;45010;53.640;10.578;2022-12-29T00:50:46;99405.44;;;22.17;35.61
59240;BME280;45010;53.640;10.578;2022-12-29T00:53:47;99401.69;;;22.13;35.40
59240;BME280;45010;53.640;10.578;2022-12-29T00:56:52;99406.47;;;22.16;35.68
59240;BME280;45010;53.640;10.578;2022-12-29T00:59:53;99403.03;;;22.16;35.58
59240;BME280;45010;53.640;10.578;2022-12-29T01:02:53;99407.28;;;22.17;35.60
59240;BME280;45010;53.640;10.578;2022-12-29T01:05:54;99405.44;;;22.17;35.43
59240;BME280;45010;53.640;10.578;2022-12-29T01:08:54;99408.09;;;22.17;35.49
59240;BME280;45010;53.640;10.578;2022-12-29T01:12:20;99407.53;;;22.15;35.51
59240;BME280;45010;53.640;10.578;2022-12-29T01:15:40;99396.13;;;22.15;35.41
59240;BME280;45010;53.640;10.578;2022-12-29T01:18:40;99392.66;;;22.14;35.40
59240;BME280;45010;53.640;10.578;2022-12-29T01:21:40;99385.75;;;22.13;35.45
59240;BME280;45010;53.640;10.578;2022-12-29T01:24:41;99376.72;;;22.14;35.46
59240;BME280;45010;53.640;10.578;2022-12-29T01:27:41;99387.34;;;22.14;35.65
59240;BME280;45010;53.640;10.578;2022-12-29T01:30:41;99378.84;;;22.12;35.56
59240;BME280;45010;53.640;10.578;2022-12-29T01:33:42;99367.56;;;22.05;35.78
59240;BME280;45010;53.640;10.578;2022-12-29T01:36:43;99361.19;;;22.01;35.67
59240;BME280;45010;53.640;10.578;2022-12-29T01:39:43;99366.59;;;22.11;35.58
59240;BME280;45010;53.640;10.578;2022-12-29T01:42:44;99369.81;;;22.13;35.77
59240;BME280;45010;53.640;10.578;2022-12-29T01:45:48;99366.59;;;22.11;35.41
59240;BME280;45010;53.640;10.578;2022-12-29T01:49:15;99365.00;;;22.10;35.86
59240;BME280;45010;53.640;10.578;2022-12-29T01:52:16;99359.69;;;22.10;35.55
59240;BME280;45010;53.640;10.578;2022-12-29T01:55:17;99356.25;;;22.10;35.36
59240;BME280;45010;53.640;10.578;2022-12-29T01:58:20;99352.78;;;22.09;35.78
59240;BME280;45010;53.640;10.578;2022-12-29T02:01:22;99346.66;;;22.09;35.47
59240;BME280;45010;53.640;10.578;2022-12-29T02:04:24;99345.03;;;22.08;35.81
59240;BME280;45010;53.640;10.578;2022-12-29T02:07:27;99336.28;;;22.07;35.58
59240;BME280;45010;53.640;10.578;2022-12-29T02:10:30;99334.44;;;22.08;35.52
59240;BME280;45010;53.640;10.578;2022-12-29T02:13:31;99340.53;;;22.08;35.88
59240;BME280;45010;53.640;10.578;2022-12-29T02:30:01;99321.06;;;21.97;35.50
59240;BME280;45010;53.640;10.578;2022-12-29T02:40:14;99310.75;;;22.01;35.79
59240;BME280;45010;53.640;10.578;2022-12-29T02:43:34;99310.75;;;22.01;35.71
59240;BME280;45010;53.640;10.578;2022-12-29T02:46:45;99305.44;;;22.01;35.84
59240;BME280;45010;53.640;10.578;2022-12-29T02:50:05;99309.13;;;22.00;35.56
59240;BME280;45010;53.640;10.578;2022-12-29T02:53:13;99284.00;;;21.85;35.82
59240;BME280;45010;53.640;10.578;2022-12-29T02:56:15;99277.16;;;21.89;35.73
59240;BME280;45010;53.640;10.578;2022-12-29T02:59:15;99288.16;;;21.98;35.74
59240;BME280;45010;53.640;10.578;2022-12-29T03:05:53;99297.94;;;21.98;35.41
59240;BME280;45010;53.640;10.578;2022-12-29T03:15:33;99267.16;;;21.97;35.43
59240;BME280;45010;53.640;10.578;2022-12-29T03:19:02;99230.81;;;21.75;35.75
59240;BME280;45010;53.640;10.578;2022-12-29T03:22:07;99270.88;;;21.96;35.58
59240;BME280;45010;53.640;10.578;2022-12-29T03:25:30;99266.59;;;21.95;35.59
59240;BME280;45010;53.640;10.578;2022-12-29T03:28:35;99263.97;;;21.95;35.67
59240;BME280;45010;53.640;10.578;2022-12-29T03:31:37;99270.31;;;21.94;35.51
59240;BME280;45010;53.640;10.578;2022-12-29T03:34:38;99250.69;;;21.95;35.71
59240;BME280;45010;53.640;10.578;2022-12-29T03:37:43;99237.59;;;21.88;35.82
59240;BME280;45010;53.640;10.578;2022-12-29T03:40:50;99227.16;;;21.81;35.51
59240;BME280;45010;53.640;10.578;2022-12-29T03:43:52;99231.53;;;21.93;35.86
59240;BME280;45010;53.640;10.578;2022-12-29T03:46:52;99231.53;;;21.93;35.57
59240;BME280;45010;53.640;10.578;2022-12-29T03:49:53;99221.91;;;21.86;35.87
59240;BME280;45010;53.640;10.578;2022-12-29T03:52:53;99229.94;;;21.92;35.69
59240;BME280;45010;53.640;10.578;2022-12-29T03:55:53;99232.59;;;21.92;35.69
59240;BME280;45010;53.640;10.578;2022-12-29T03:58:54;99228.34;;;21.90;35.59
59240;BME280;45010;53.640;10.578;2022-12-29T04:01:54;99233.66;;;21.90;35.85
59240;BME280;45010;53.640;10.578;2022-12-29T04:04:54;99208.94;;;21.90;36.06
59240;BME280;45010;53.640;10.578;2022-12-29T04:07:55;99216.91;;;21.90;35.64
59240;BME280;45010;53.640;10.578;2022-12-29T04:10:55;99199.38;;;21.89;35.97
59240;BME280;45010;53.640;10.578;2022-12-29T04:13:55;99208.94;;;21.90;35.88
59240;BME280;45010;53.640;10.578;2022-12-29T04:16:56;99198.31;;;21.90;35.91
59240;BME280;45010;53.640;10.578;2022-12-29T04:19:56;99200.19;;;21.89;35.79
59240;BME280;45010;53.640;10.578;2022-12-29T04:23:16;99200.97;;;21.90;35.81
59240;BME280;45010;53.640;10.578;2022-12-29T04:26:17;99185.75;;;21.80;35.70
59240;BME280;45010;53.640;10.578;2022-12-29T04:29:17;99180.97;;;21.77;35.89
59240;BME280;45010;53.640;10.578;2022-12-29T04:32:17;99201.25;;;21.88;35.68
59240;BME280;45010;53.640;10.578;2022-12-29T04:35:18;99200.19;;;21.89;35.96
59240;BME280;45010;53.640;10.578;2022-12-29T04:38:18;99203.91;;;21.88;35.71
59240;BME280;45010;53.640;10.578;2022-12-29T04:41:18;99201.19;;;21.83;35.77
59240;BME280;45010;53.640;10.578;2022-12-29T04:44:19;99210.81;;;21.89;35.82
59240;BME280;45010;53.640;10.578;2022-12-29T04:47:19;99215.31;;;21.89;36.18
59240;BME280;45010;53.640;10.578;2022-12-29T04:50:19;99200.19;;;21.89;35.78
59240;BME280;45010;53.640;10.578;2022-12-29T04:53:20;99198.59;;;21.88;35.82
59240;BME280;45010;53.640;10.578;2022-12-29T04:56:20;99184.28;;;21.89;35.94
59240;BME280;45010;53.640;10.578;2022-12-29T04:59:20;99189.59;;;21.89;36.00
59240;BME280;45010;53.640;10.578;2022-12-29T05:02:21;99184.28;;;21.89;36.01
59240;BME280;45010;53.640;10.578;2022-12-29T05:05:21;99172.84;;;21.89;36.06
59240;BME280;45010;53.640;10.578;2022-12-29T05:08:22;99165.09;;;21.82;36.11
59240;BME280;45010;53.640;10.578;2022-12-29T05:11:23;99176.31;;;21.89;36.07
59240;BME280;45010;53.640;10.578;2022-12-29T05:14:23;99172.06;;;21.88;36.07
59240;BME280;45010;53.640;10.578;2022-12-29T05:17:23;99171.25;;;21.88;36.07
59240;BME280;45010;53.640;10.578;2022-12-29T05:20:24;99167.53;;;21.89;36.10
59240;BME280;45010;53.640;10.578;2022-12-29T05:23:24;99164.09;;;21.88;35.88
59240;BME280;45010;53.640;10.578;2022-12-29T05:26:24;99168.34;;;21.89;35.86
59240;BME280;45010;53.640;10.578;2022-12-29T05:29:25;99166.75;;;21.88;35.89
59240;BME280;45010;53.640;10.578;2022-12-29T05:32:25;99173.66;;;21.89;35.97
59240;BME280;45010;53.640;10.578;2022-12-29T05:35:25;99178.16;;;21.89;35.99
59240;BME280;45010;53.640;10.578;2022-12-29T05:38:26;99174.72;;;21.88;35.96
59240;BME280;45010;53.640;10.578;2022-12-29T05:41:27;99147.00;;;21.79;36.09
59240;BME280;45010;53.640;10.578;2022-12-29T05:44:27;99147.00;;;21.79;35.83
59240;BME280;45010;53.640;10.578;2022-12-29T05:47:28;99166.75;;;21.88;36.04
59240;BME280;45010;53.640;10.578;2022-12-29T05:50:28;99140.09;;;21.78;36.08
59240;BME280;45010;53.640;10.578;2022-12-29T05:53:28;99127.75;;;21.67;36.01
59240;BME280;45010;53.640;10.578;2022-12-29T05:56:29;99156.13;;;21.88;35.87
59240;BME280;45010;53.640;10.578;2022-12-29T05:59:29;99168.34;;;21.89;35.93
59240;BME280;45010;53.640;10.578;2022-12-29T06:02:29;99161.44;;;21.88;36.17
59240;BME280;45010;53.640;10.578;2022-12-29T06:05:30;99162.22;;;21.89;36.24
59240;BME280;45010;53.640;10.578;2022-12-29T06:08:30;99152.44;;;21.89;35.80
59240;BME280;45010;53.640;10.578;2022-12-29T06:11:30;99164.88;;;21.89;36.13
59240;BME280;45010;53.640;10.578;2022-12-29T06:14:31;99148.97;;;21.89;35.97
59240;BME280;45010;53.640;10.578;2022-12-29T06:17:31;99163.03;;;21.89;35.94
59240;BME280;45010;53.640;10.578;2022-12-29T06:20:31;99156.13;;;21.88;36.46
59240;BME280;45010;53.640;10.578;2022-12-29T06:23:32;99163.81;;;21.90;36.73
59240;BME280;45010;53.640;10.578;2022-12-29T06:26:32;99159.31;;;21.90;36.82
59240;BME280;45010;53.640;10.578;2022-12-29T06:29:32;99169.94;;;21.90;37.20
59240;BME280;45010;53.640;10.578;2022-12-29T06:32:33;99162.03;;;21.96;37.29
59240;BME280;45010;53.640;10.578;2022-12-29T06:35:33;99164.16;;;21.99;36.95
59240;BME280;45010;53.640;10.578;2022-12-29T06:38:33;99181.22;;;22.03;37.08
59240;BME280;45010;53.640;10.578;2022-12-29T06:41:35;99181.75;;;22.05;37.22
59240;BME280;45010;53.640;10.578;2022-12-29T06:44:35;99169.09;;;22.12;37.18
59240;BME280;45010;53.640;10.578;2022-12-29T06:47:36;99173.63;;;22.17;37.09
59240;BME280;45010;53.640;10.578;2022-12-29T06:50:36;99175.53;;;22.22;36.75
59240;BME280;45010;53.640;10.578;2022-12-29T06:53:36;99167.59;;;22.27;36.97
59240;BME280;45010;53.640;10.578;2022-12-29T06:56:36;99159.16;;;22.30;36.54
59240;BME280;45010;53.640;10.578;2022-12-29T06:59:37;99164.75;;;22.34;36.58
59240;BME280;45010;53.640;10.578;2022-12-29T07:02:37;99155.19;;;22.38;36.56
59240;BME280;45010;53.640;10.578;2022-12-29T07:05:37;99150.44;;;22.40;36.69
59240;BME280;45010;53.640;10.578;2022-12-29T07:08:38;99159.75;;;22.42;36.82
59240;BME280;45010;53.640;10.578;2022-12-29T07:11:38;99152.88;;;22.47;36.73
59240;BME280;45010;53.640;10.578;2022-12-29T07:14:39;99160.34;;;22.50;36.77
59240;BME280;45010;53.640;10.578;2022-12-29T07:17:39;99145.50;;;22.54;36.47
59240;BME280;45010;53.640;10.578;2022-12-29T07:20:39;99148.72;;;22.56;36.34
59240;BME280;45010;53.640;10.578;2022-12-29T07:23:40;99164.13;;;22.59;36.04
59240;BME280;45010;53.640;10.578;2022-12-29T07:26:41;99149.81;;;22.60;36.11
59240;BME280;45010;53.640;10.578;2022-12-29T07:29:41;99156.19;;;22.64;36.71
59240;BME280;45010;53.640;10.578;2022-12-29T07:32:42;99146.88;;;22.62;36.79
59240;BME280;45010;53.640;10.578;2022-12-29T07:35:42;99162.09;;;22.71;36.31
59240;BME280;45010;53.640;10.578;2022-12-29T07:38:43;99151.97;;;22.68;36.32
59240;BME280;45010;53.640;10.578;2022-12-29T07:41:43;99161.06;;;22.78;36.51
59240;BME280;45010;53.640;10.578;2022-12-29T07:44:43;99163.22;;;22.81;36.67
59240;BME280;45010;53.640;10.578;2022-12-29T07:47:47;99172.78;;;22.82;36.69
59240;BME280;45010;53.640;10.578;2022-12-29T07:50:48;99177.03;;;22.83;36.22
59240;BME280;45010;53.640;10.578;2022-12-29T07:53:48;99175.97;;;22.84;36.70
59240;BME280;45010;53.640;10.578;2022-12-29T07:56:48;99184.50;;;22.86;36.31
59240;BME280;45010;53.640;10.578;2022-12-29T07:59:49;99183.19;;;22.89;36.38
59240;BME280;45010;53.640;10.578;2022-12-29T08:02:49;99185.56;;;22.90;36.37
59240;BME280;45010;53.640;10.578;2022-12-29T08:05:49;99174.44;;;22.93;36.24
59240;BME280;45010;53.640;10.578;2022-12-29T08:08:50;99188.28;;;22.95;35.97
59240;BME280;45010;53.640;10.578;2022-12-29T08:11:50;99191.50;;;22.97;35.89
59240;BME280;45010;53.640;10.578;2022-12-29T08:14:50;99182.44;;;22.98;36.30
59240;BME280;45010;53.640;10.578;2022-12-29T08:17:51;99194.69;;;23.00;35.98
59240;BME280;45010;53.640;10.578;2022-12-29T08:20:51;99171.28;;;23.02;36.17
59240;BME280;45010;53.640;10.578;2022-12-29T08:23:51;99196.31;;;23.06;36.01
59240;BME280;45010;53.640;10.578;2022-12-29T08:26:52;99205.88;;;23.07;35.84
59240;BME280;45010;53.640;10.578;2022-12-29T08:29:52;99197.09;;;23.01;35.90
59240;BME280;45010;53.640;10.578;2022-12-29T08:32:52;99202.16;;;23.08;35.62
59240;BME280;45010;53.640;10.578;2022-12-29T08:36:03;99200.06;;;23.10;35.47
59240;BME280;45010;53.640;10.578;2022-12-29T08:39:03;99166.47;;;22.93;35.60
59240;BME280;45010;53.640;10.578;2022-12-29T08:42:04;99201.13;;;23.14;35.68
59240;BME280;45010;53.640;10.578;2022-12-29T08:45:04;99197.44;;;23.15;35.55
59240;BME280;45010;53.640;10.578;2022-12-29T08:48:05;99208.06;;;23.15;35.63
59240;BME280;45010;53.640;10.578;2022-12-29T08:51:05;99209.66;;;23.16;35.63
59240;BME280;45010;53.640;10.578;2022-12-29T08:54:06;99211.25;;;23.17;35.76
59240;BME280;45010;53.640;10.578;2022-12-29T08:57:06;99209.66;;;23.16;35.72
59240;BME280;45010;53.640;10.578;2022-12-29T09:00:07;99214.97;;;23.16;35.63
59240;BME280;45010;53.640;10.578;2022-12-29T09:03:07;99225.63;;;23.16;35.81
59240;BME280;45010;53.640;10.578;2022-12-29T09:06:08;99223.22;;;23.15;35.64
59240;BME280;45010;53.640;10.578;2022-12-29T09:09:08;99215.47;;;23.13;35.74
59240;BME280;45010;53.640;10.578;2022-12-29T09:12:08;99230.38;;;23.14;35.63
59240;BME280;45010;53.640;10.578;2022-12-29T09:15:09;99214.63;;;23.02;35.90
59240;BME280;45010;53.640;10.578;2022-12-29T09:18:11;99221.34;;;23.10;35.61
59240;BME280;45010;53.640;10.578;2022-12-29T09:21:12;99230.94;;;23.16;35.45
59240;BME280;45010;53.640;10.578;2022-12-29T09:24:12;99236.25;;;23.16;35.80
59240;BME280;45010;53.640;10.578;2022-12-29T09:27:13;99230.13;;;23.16;35.54
59240;BME280;45010;53.640;10.578;2022-12-29T09:30:14;99219.72;;;23.09;35.73
59240;BME280;45010;53.640;10.578;2022-12-29T09:33:15;99232.25;;;23.14;35.55
59240;BME280;45010;53.640;10.578;2022-12-29T09:36:15;99241.28;;;23.13;35.71
59240;BME280;45010;53.640;10.578;2022-12-29T09:39:16;99241.53;;;23.11;35.72
59240;BME280;45010;53.640;10.578;2022-12-29T09:42:26;99235.38;;;23.05;35.37
59240;BME280;45010;53.640;10.578;2022-12-29T09:45:33;99238.31;;;23.04;35.72
59240;BME280;45010;53.640;10.578;2022-12-29T09:48:41;99237.00;;;23.06;35.74
59240;BME280;45010;53.640;10.578;2022-12-29T09:51:47;99236.44;;;23.04;35.82
59240;BME280;45010;53.640;10.578;2022-12-29T09:58:32;99224.41;;;22.91;35.46
59240;BME280;45010;53.640;10.578;2022-12-29T10:01:44;99235.63;;;22.98;35.39
59240;BME280;45010;53.640;10.578;2022-12-29T10:04:46;99224.91;;;22.88;35.77
59240;BME280;45010;53.640;10.578;2022-12-29T10:08:25;99236.66;;;22.92;35.49
59240;BME280;45010;53.640;10.578;2022-12-29T10:14:57;99238.53;;;22.97;35.74
59240;BME280;45010;53.640;10.578;2022-12-29T10:18:15;99222.22;;;22.83;35.72
59240;BME280;45010;53.640;10.578;2022-12-29T10:24:50;99256.31;;;22.91;35.77
59240;BME280;45010;53.640;10.578;2022-12-29T10:27:53;99260.00;;;22.90;35.33
59240;BME280;45010;53.640;10.578;2022-12-29T10:30:56;99260.28;;;22.89;35.75
59240;BME280;45010;53.640;10.578;2022-12-29T10:34:02;99250.13;;;22.80;35.79
59240;BME280;45010;53.640;10.578;2022-12-29T10:37:34;99241.34;;;22.80;35.58
59240;BME280;45010;53.640;10.578;2022-12-29T10:40:46;99260.00;;;22.85;35.55
59240;BME280;45010;53.640;10.578;2022-12-29T10:43:51;99254.06;;;22.78;35.87
59240;BME280;45010;53.640;10.578;2022-12-29T10:46:59;99263.16;;;22.82;35.77
59240;BME280;45010;53.640;10.578;2022-12-29T10:50:02;99249.78;;;22.71;35.75
59240;BME280;45010;53.640;10.578;2022-12-29T10:53:04;99250.34;;;22.74;35.67
59240;BME280;45010;53.640;10.578;2022-12-29T10:56:15;99256.72;;;22.78;35.86
59240;BME280;45010;53.640;10.578;2022-12-29T10:59:28;99259.66;;;22.76;35.47
59240;BME280;45010;53.640;10.578;2022-12-29T11:02:56;99262.56;;;22.75;35.54
59240;BME280;45010;53.640;10.578;2022-12-29T11:09:16;99254.28;;;22.66;35.69
59240;BME280;45010;53.640;10.578;2022-12-29T11:12:30;99256.16;;;22.70;36.14
59240;BME280;45010;53.640;10.578;2022-12-29T11:15:45;99253.97;;;22.62;36.03
59240;BME280;45010;53.640;10.578;2022-12-29T11:18:46;99255.09;;;22.66;36.06
59240;BME280;45010;53.640;10.578;2022-12-29T11:21:47;99249.44;;;22.63;36.02
59240;BME280;45010;53.640;10.578;2022-12-29T11:24:49;99233.75;;;22.56;35.97
59240;BME280;45010;53.640;10.578;2022-12-29T11:28:02;99253.97;;;22.62;35.96
59240;BME280;45010;53.640;10.578;2022-12-29T11:31:06;99245.47;;;22.60;36.17
59240;BME280;45010;53.640;10.578;2022-12-29T11:34:07;99255.28;;;22.60;35.89
59240;BME280;45010;53.640;10.578;2022-12-29T11:40:18;99249.69;;;22.56;36.21
59240;BME280;45010;53.640;10.578;2022-12-29T11:43:32;99260.31;;;22.56;36.28
59240;BME280;45010;53.640;10.578;2022-12-29T11:46:36;99242.66;;;22.44;36.26
59240;BME280;45010;53.640;10.578;2022-12-29T11:49:38;99234.63;;;22.39;36.12
59240;BME280;45010;53.640;10.578;2022-12-29T11:52:38;99263.47;;;22.53;36.18
59240;BME280;45010;53.640;10.578;2022-12-29T11:55:39;99264.50;;;22.52;36.04
59240;BME280;45010;53.640;10.578;2022-12-29T11:58:40;99257.56;;;22.51;36.25
59240;BME280;45010;53.640;10.578;2022-12-29T12:01:41;99256.75;;;22.50;36.52
59240;BME280;45010;53.640;10.578;2022-12-29T12:04:43;99236.16;;;22.30;36.23
59240;BME280;45010;53.640;10.578;2022-12-29T12:07:50;99265.00;;;22.49;36.31
59240;BME280;45010;53.640;10.578;2022-12-29T12:11:01;99257.03;;;22.49;36.35
59240;BME280;45010;53.640;10.578;2022-12-29T12:14:19;99265.00;;;22.49;36.58
59240;BME280;45010;53.640;10.578;2022-12-29T12:17:31;99260.69;;;22.42;36.60
59240;BME280;45010;53.640;10.578;2022-12-29T12:24:07;99274.00;;;22.48;36.67
59240;BME280;45010;53.640;10.578;2022-12-29T12:27:20;99275.06;;;22.47;36.70
59240;BME280;45010;53.640;10.578;2022-12-29T12:30:25;99276.66;;;22.48;36.60
59240;BME280;45010;53.640;10.578;2022-12-29T12:33:48;99274.22;;;22.41;36.66
59240;BME280;45010;53.640;10.578;2022-12-29T12:37:12;99276.13;;;22.46;37.20
59240;BME280;45010;53.640;10.578;2022-12-29T12:40:46;99281.44;;;22.46;37.23
59240;BME280;45010;53.640;10.578;2022-12-29T12:44:22;99261.19;;;22.39;37.26
59240;BME280;45010;53.640;10.578;2022-12-29T12:47:39;99274.00;;;22.48;37.19
59240;BME280;45010;53.640;10.578;2022-12-29T12:51:08;99266.59;;;22.50;36.98
59240;BME280;45010;53.640;10.578;2022-12-29T12:57:52;99271.44;;;22.53;37.26
59240;BME280;45010;53.640;10.578;2022-12-29T13:14:18;99280.03;;;22.65;36.98
59240;BME280;45010;53.640;10.578;2022-12-29T13:17:36;99295.47;;;22.68;36.99
59240;BME280;45010;53.640;10.578;2022-12-29T13:30:50;99284.31;;;22.71;36.98
59240;BME280;45010;53.640;10.578;2022-12-29T13:37:22;99289.72;;;22.82;36.96
59240;BME280;45010;53.640;10.578;2022-12-29T13:40:26;99290.25;;;22.79;36.75
59240;BME280;45010;53.640;10.578;2022-12-29T13:43:32;99302.00;;;22.88;36.50
59240;BME280;45010;53.640;10.578;2022-12-29T13:46:43;99291.28;;;22.73;36.53
59240;BME280;45010;53.640;10.578;2022-12-29T13:49:44;99316.41;;;22.92;36.69
59240;BME280;45010;53.640;10.578;2022-12-29T13:52:48;99313.50;;;22.94;36.72
59240;BME280;45010;53.640;10.578;2022-12-29T13:56:16;99317.50;;;22.96;36.83
59240;BME280;45010;53.640;10.578;2022-12-29T13:59:50;99330.53;;;22.98;36.25
59240;BME280;45010;53.640;10.578;2022-12-29T14:03:17;99286.53;;;22.80;36.22
59240;BME280;45010;53.640;10.578;2022-12-29T14:06:23;99329.22;;;23.01;36.40
59240;BME280;45010;53.640;10.578;2022-12-29T14:13:00;99338.84;;;23.07;36.31
59240;BME280;45010;53.640;10.578;2022-12-29T14:16:02;99337.75;;;23.08;36.20
59240;BME280;45010;53.640;10.578;2022-12-29T14:19:19;99335.63;;;23.05;36.39
59240;BME280;45010;53.640;10.578;2022-12-29T14:22:26;99349.47;;;23.07;36.05
59240;BME280;45010;53.640;10.578;2022-12-29T14:25:54;99340.88;;;22.94;36.18
59240;BME280;45010;53.640;10.578;2022-12-29T14:28:55;99388.91;;;23.15;35.98
59240;BME280;45010;53.640;10.578;2022-12-29T14:31:56;99408.06;;;23.17;35.93
59240;BME280;45010;53.640;10.578;2022-12-29T14:35:00;99405.34;;;23.12;35.89
59240;BME280;45010;53.640;10.578;2022-12-29T14:38:26;99476.69;;;23.20;35.92
59240;BME280;45010;53.640;10.578;2022-12-29T14:41:29;99461.53;;;23.21;36.17
59240;BME280;45010;53.640;10.578;2022-12-29T14:44:31;99469.28;;;23.22;35.94
59240;BME280;45010;53.640;10.578;2022-12-29T14:47:32;99466.38;;;23.24;36.32
59240;BME280;45010;53.640;10.578;2022-12-29T14:50:42;99462.66;;;23.25;36.21
59240;BME280;45010;53.640;10.578;2022-12-29T14:53:48;99460.72;;;23.20;35.95
59240;BME280;45010;53.640;10.578;2022-12-29T14:56:49;99470.38;;;23.27;36.34
59240;BME280;45010;53.640;10.578;2022-12-29T14:59:53;99463.97;;;23.22;36.13
59240;BME280;45010;53.640;10.578;2022-12-29T15:03:12;99475.44;;;23.28;36.09
59240;BME280;45010;53.640;10.578;2022-12-29T15:06:14;99485.81;;;23.30;35.80
59240;BME280;45010;53.640;10.578;2022-12-29T15:09:30;99490.13;;;23.31;35.94
59240;BME280;45010;53.640;10.578;2022-12-29T15:12:37;99466.56;;;23.17;35.95
59240;BME280;45010;53.640;10.578;2022-12-29T15:15:38;99490.69;;;23.33;36.17
59240;BME280;45010;53.640;10.578;2022-12-29T15:18:39;99482.72;;;23.33;35.71
59240;BME280;45010;53.640;10.578;2022-12-29T15:21:42;99484.03;;;23.35;36.08
59240;BME280;45010;53.640;10.578;2022-12-29T15:24:43;99486.44;;;23.37;35.83
59240;BME280;45010;53.640;10.578;2022-12-29T15:27:52;99451.66;;;23.16;35.76
59240;BME280;45010;53.640;10.578;2022-12-29T15:30:55;99489.06;;;23.32;35.59
59240;BME280;45010;53.640;10.578;2022-12-29T15:34:12;99487.50;;;23.36;35.59
59240;BME280;45010;53.640;10.578;2022-12-29T15:37:21;99496.03;;;23.38;35.69
59240;BME280;45010;53.640;10.578;2022-12-29T15:40:28;99510.97;;;23.44;35.67
59240;BME280;45010;53.640;10.578;2022-12-29T15:43:49;99487.94;;;23.28;35.41
59240;BME280;45010;53.640;10.578;2022-12-29T15:46:52;99527.50;;;23.46;35.68
59240;BME280;45010;53.640;10.578;2022-12-29T15:49:55;99526.41;;;23.42;35.33
59240;BME280;45010;53.640;10.578;2022-12-29T15:52:58;99524.28;;;23.44;35.62
59240;BME280;45010;53.640;10.578;2022-12-29T15:56:02;99537.34;;;23.46;35.49
59240;BME280;45010;53.640;10.578;2022-12-29T15:59:22;99553.09;;;23.53;35.42
59240;BME280;45010;53.640;10.578;2022-12-29T16:02:24;99539.75;;;23.47;35.20
59240;BME280;45010;53.640;10.578;2022-12-29T16:05:32;99546.69;;;23.48;35.36
59240;BME280;45010;53.640;10.578;2022-12-29T16:08:36;99545.63;;;23.49;35.37
59240;BME280;45010;53.640;10.578;2022-12-29T16:14:59;99570.97;;;23.57;35.40
59240;BME280;45010;53.640;10.578;2022-12-29T16:17:59;99579.50;;;23.59;35.28
59240;BME280;45010;53.640;10.578;2022-12-29T16:21:01;99578.19;;;23.62;35.18
59240;BME280;45010;53.640;10.578;2022-12-29T16:24:07;99578.75;;;23.64;35.31
59240;BME280;45010;53.640;10.578;2022-12-29T16:27:18;99586.75;;;23.64;35.29
59240;BME280;45010;53.640;10.578;2022-12-29T16:30:22;99584.63;;;23.66;35.46
59240;BME280;45010;53.640;10.578;2022-12-29T16:36:53;99578.19;;;23.62;35.53
59240;BME280;45010;53.640;10.578;2022-12-29T16:39:53;99569.66;;;23.60;35.34
59240;BME280;45010;53.640;10.578;2022-12-29T16:42:58;99597.97;;;23.71;35.34
59240;BME280;45010;53.640;10.578;2022-12-29T16:48:59;99595.97;;;23.84;35.30
59240;BME280;45010;53.640;10.578;2022-12-29T16:51:59;99602.78;;;23.74;35.38
59240;BME280;45010;53.640;10.578;2022-12-29T16:55:01;99606.50;;;23.73;35.52
59240;BME280;45010;53.640;10.578;2022-12-29T16:58:01;99601.75;;;23.75;35.58
59240;BME280;45010;53.640;10.578;2022-12-29T17:01:03;99609.75;;;23.75;35.44
59240;BME280;45010;53.640;10.578;2022-12-29T17:04:10;99604.06;;;23.67;35.09
59240;BME280;45010;53.640;10.578;2022-12-29T17:07:22;99617.16;;;23.73;35.26
59240;BME280;45010;53.640;10.578;2022-12-29T17:10:23;99605.63;;;23.62;35.16
59240;BME280;45010;53.640;10.578;2022-12-29T17:13:43;99627.25;;;23.71;35.41
59240;BME280;45010;53.640;10.578;2022-12-29T17:16:44;99625.66;;;23.70;35.44
59240;BME280;45010;53.640;10.578;2022-12-29T17:19:47;99606.44;;;23.63;35.41
59240;BME280;45010;53.640;10.578;2022-12-29T17:22:49;99612.53;;;23.63;35.47
59240;BME280;45010;53.640;10.578;2022-12-29T17:25:50;99623.25;;;23.69;35.50
59240;BME280;45010;53.640;10.578;2022-12-29T17:28:51;99611.75;;;23.63;35.43
59240;BME280;45010;53.640;10.578;2022-12-29T17:31:51;99596.78;;;23.57;35.79
59240;BME280;45010;53.640;10.578;2022-12-29T17:34:53;99626.22;;;23.72;35.83
59240;BME280;45010;53.640;10.578;2022-12-29T17:37:54;99622.47;;;23.73;35.90
59240;BME280;45010;53.640;10.578;2022-12-29T17:40:54;99625.72;;;23.75;36.01